createdAt,value
2018-03-19T00:01:52.298Z,-1.10
2018-03-19T00:04:19.849Z,-1.10
2018-03-19T00:06:47.790Z,-1.10
2018-03-19T00:09:15.477Z,-1.10
2018-03-19T00:11:43.022Z,-1.10
2018-03-19T00:14:10.568Z,-1.10
2018-03-19T00:16:38.459Z,-1.20
2018-03-19T00:19:06.000Z,-1.20
2018-03-19T00:21:33.551Z,-1.20
2018-03-19T00:24:01.248Z,-1.20
2018-03-19T00:26:28.794Z,-1.10
2018-03-19T00:28:56.347Z,-1.10
2018-03-19T00:31:24.233Z,-1.10
2018-03-19T00:33:51.779Z,-1.10
2018-03-19T00:36:19.322Z,-1.20
2018-03-19T00:38:47.010Z,-1.20
2018-03-19T00:41:14.561Z,-1.20
2018-03-19T00:43:42.110Z,-1.10
2018-03-19T00:46:10.010Z,-1.10
2018-03-19T00:48:37.558Z,-1.10
2018-03-19T00:51:05.139Z,-1.10
2018-03-19T00:53:33.532Z,-1.10
2018-03-19T00:56:01.082Z,-1.10
2018-03-19T00:58:29.403Z,-1.20
2018-03-19T01:00:57.029Z,-1.20
2018-03-19T01:03:25.342Z,-1.20
2018-03-19T01:05:52.897Z,-1.10
2018-03-19T01:08:21.010Z,-1.10
2018-03-19T01:10:48.569Z,-1.20
2018-03-19T01:13:17.626Z,-1.20
2018-03-19T01:15:45.600Z,-1.20
2018-03-19T01:18:13.157Z,-1.20
2018-03-19T01:20:40.703Z,-1.20
2018-03-19T01:23:08.412Z,-1.20
2018-03-19T01:25:35.968Z,-1.20
2018-03-19T01:28:03.519Z,-1.20
2018-03-19T01:30:31.218Z,-1.30
2018-03-19T01:32:59.537Z,-1.20
2018-03-19T01:35:27.086Z,-1.30
2018-03-19T01:37:55.578Z,-1.20
2018-03-19T01:40:23.126Z,-1.20
2018-03-19T01:42:50.700Z,-1.20
2018-03-19T01:45:18.593Z,-1.20
2018-03-19T01:47:46.147Z,-1.30
2018-03-19T01:50:13.696Z,-1.30
2018-03-19T01:52:49.374Z,-1.30
2018-03-19T01:55:16.923Z,-1.30
2018-03-19T01:57:45.984Z,-1.30
2018-03-19T02:00:13.784Z,-1.30
2018-03-19T02:02:41.333Z,-1.30
2018-03-19T02:05:08.887Z,-1.40
2018-03-19T02:07:36.771Z,-1.40
2018-03-19T02:10:04.322Z,-1.40
2018-03-19T02:12:31.872Z,-1.40
2018-03-19T02:14:59.807Z,-1.40
2018-03-19T02:17:27.358Z,-1.50
2018-03-19T02:19:54.911Z,-1.50
2018-03-19T02:22:23.760Z,-1.50
2018-03-19T02:24:51.315Z,-1.50
2018-03-19T02:27:19.110Z,-1.50
2018-03-19T02:29:47.503Z,-1.50
2018-03-19T02:32:15.083Z,-1.50
2018-03-19T02:34:42.651Z,-1.50
2018-03-19T02:37:10.555Z,-1.50
2018-03-19T02:39:38.114Z,-1.60
2018-03-19T02:42:05.672Z,-1.50
2018-03-19T02:44:33.285Z,-1.50
2018-03-19T02:47:00.863Z,-1.50
2018-03-19T02:49:28.419Z,-1.50
2018-03-19T02:51:56.067Z,-1.60
2018-03-19T02:54:23.626Z,-1.50
2018-03-19T02:56:51.182Z,-1.50
2018-03-19T02:59:18.768Z,-1.50
2018-03-19T03:01:46.322Z,-1.60
2018-03-19T03:04:13.878Z,-1.60
2018-03-19T03:06:41.522Z,-1.70
2018-03-19T03:09:09.070Z,-1.60
2018-03-19T03:11:36.626Z,-1.70
2018-03-19T03:14:06.046Z,-1.60
2018-03-19T03:16:33.598Z,-1.70
2018-03-19T03:19:01.148Z,-1.60
2018-03-19T03:21:28.744Z,-1.70
2018-03-19T03:23:56.307Z,-1.70
2018-03-19T03:26:23.858Z,-1.60
2018-03-19T03:28:51.857Z,-1.70
2018-03-19T03:31:19.419Z,-1.60
2018-03-19T03:33:46.972Z,-1.70
2018-03-19T03:36:14.844Z,-1.70
2018-03-19T03:38:42.394Z,-1.70
2018-03-19T03:41:09.946Z,-1.70
2018-03-19T03:43:37.674Z,-1.70
2018-03-19T03:46:05.221Z,-1.70
2018-03-19T03:48:32.771Z,-1.70
2018-03-19T03:51:00.380Z,-1.70
2018-03-19T03:53:27.934Z,-1.70
2018-03-19T03:55:55.494Z,-1.70
2018-03-19T03:58:23.406Z,-1.80
2018-03-19T04:00:50.956Z,-1.70
2018-03-19T04:03:18.507Z,-1.80
2018-03-19T04:05:47.184Z,-1.80
2018-03-19T04:08:14.736Z,-1.80
2018-03-19T04:10:42.290Z,-1.80
2018-03-19T04:13:09.995Z,-1.80
2018-03-19T04:15:38.329Z,-1.80
2018-03-19T04:18:05.886Z,-1.80
2018-03-19T04:20:33.784Z,-1.80
2018-03-19T04:23:01.351Z,-1.80
2018-03-19T04:25:28.910Z,-1.80
2018-03-19T04:27:56.785Z,-1.90
2018-03-19T04:30:24.336Z,-1.80
2018-03-19T04:32:51.928Z,-1.80
2018-03-19T04:35:19.892Z,-1.80
2018-03-19T04:37:48.212Z,-1.80
2018-03-19T04:40:15.762Z,-1.80
2018-03-19T04:42:43.658Z,-1.80
2018-03-19T04:45:11.212Z,-1.80
2018-03-19T04:47:38.767Z,-1.70
2018-03-19T04:50:06.675Z,-1.80
2018-03-19T04:52:34.992Z,-1.80
2018-03-19T04:55:02.838Z,-1.80
2018-03-19T04:57:30.677Z,-1.70
2018-03-19T04:59:59.001Z,-1.70
2018-03-19T05:02:26.561Z,-1.70
2018-03-19T05:04:54.320Z,-1.70
2018-03-19T05:07:21.870Z,-1.70
2018-03-19T05:09:49.420Z,-1.70
2018-03-19T05:12:18.064Z,-1.70
2018-03-19T05:14:45.614Z,-1.70
2018-03-19T05:17:13.173Z,-1.70
2018-03-19T05:19:42.099Z,-1.70
2018-03-19T05:22:10.410Z,-1.60
2018-03-19T05:24:37.970Z,-1.60
2018-03-19T05:27:05.569Z,-1.60
2018-03-19T05:29:33.120Z,-1.50
2018-03-19T05:32:00.697Z,-1.50
2018-03-19T05:34:28.513Z,-1.50
2018-03-19T05:36:56.054Z,-1.50
2018-03-19T05:39:23.598Z,-1.50
2018-03-19T05:41:52.382Z,-1.40
2018-03-19T05:44:20.701Z,-1.40
2018-03-19T05:46:48.249Z,-1.40
2018-03-19T05:49:16.566Z,-1.40
2018-03-19T05:51:44.108Z,-1.40
2018-03-19T05:54:11.651Z,-1.30
2018-03-19T05:56:39.797Z,-1.30
2018-03-19T05:59:08.104Z,-1.30
2018-03-19T06:01:35.690Z,-1.30
2018-03-19T06:04:03.385Z,-1.30
2018-03-19T06:06:31.708Z,-1.20
2018-03-19T06:08:59.253Z,-1.20
2018-03-19T06:11:26.949Z,-1.10
2018-03-19T06:13:54.500Z,-1.10
2018-03-19T06:16:22.049Z,-1.10
2018-03-19T06:18:50.355Z,-1.00
2018-03-19T06:21:18.635Z,-1.00
2018-03-19T06:23:46.180Z,-1.00
2018-03-19T06:26:15.189Z,-1.00
2018-03-19T06:28:42.737Z,-0.80
2018-03-19T06:31:10.288Z,-0.80
2018-03-19T06:33:39.910Z,-0.80
2018-03-19T06:36:07.462Z,-0.70
2018-03-19T06:38:35.802Z,-0.70
2018-03-19T06:41:03.406Z,-0.70
2018-03-19T06:43:30.962Z,-0.60
2018-03-19T06:45:59.444Z,-0.70
2018-03-19T06:48:29.051Z,-0.60
2018-03-19T06:50:56.591Z,-0.60
2018-03-19T06:53:24.146Z,-0.60
2018-03-19T06:55:52.034Z,-0.60
2018-03-19T06:58:19.599Z,-0.50
2018-03-19T07:00:48.595Z,-0.50
2018-03-19T07:03:16.143Z,-0.40
2018-03-19T07:05:44.122Z,-0.40
2018-03-19T07:08:11.673Z,-0.40
2018-03-19T07:10:39.234Z,-0.30
2018-03-19T07:13:07.753Z,-0.30
2018-03-19T07:15:36.061Z,-0.20
2018-03-19T07:18:03.623Z,-0.20
2018-03-19T07:20:32.344Z,-0.10
2018-03-19T07:22:59.900Z,-0.10
2018-03-19T07:25:27.445Z,0.00
2018-03-19T07:27:55.325Z,0.10
2018-03-19T07:30:22.868Z,0.20
2018-03-19T07:32:51.593Z,0.30
2018-03-19T07:35:19.958Z,0.50
2018-03-19T07:37:47.508Z,0.50
2018-03-19T07:40:15.050Z,0.60
2018-03-19T07:42:43.769Z,0.60
2018-03-19T07:45:11.311Z,0.60
2018-03-19T07:47:38.862Z,0.50
2018-03-19T07:50:09.635Z,0.40
2018-03-19T07:52:38.060Z,0.80
2018-03-19T07:55:05.609Z,0.80
2018-03-19T07:57:34.710Z,1.00
2018-03-19T08:00:02.254Z,1.20
2018-03-19T08:02:29.789Z,1.40
2018-03-19T08:05:00.286Z,1.70
2018-03-19T08:07:27.828Z,1.70
2018-03-19T08:09:55.400Z,1.70
2018-03-19T08:12:26.849Z,1.70
2018-03-19T08:14:54.417Z,1.70
2018-03-19T08:17:21.984Z,1.70
2018-03-19T08:19:51.171Z,1.90
2018-03-19T08:22:18.714Z,2.00
2018-03-19T08:24:46.263Z,1.70
2018-03-19T08:27:14.773Z,1.70
2018-03-19T08:29:42.326Z,1.60
2018-03-19T08:32:09.882Z,1.50
2018-03-19T08:34:37.553Z,1.80
2018-03-19T08:37:05.093Z,1.80
2018-03-19T08:39:32.634Z,1.80
2018-03-19T08:42:00.354Z,1.80
2018-03-19T08:44:27.894Z,2.00
2018-03-19T08:46:55.439Z,2.10
2018-03-19T08:49:23.317Z,2.00
2018-03-19T08:51:50.862Z,1.90
2018-03-19T08:54:18.417Z,1.80
2018-03-19T08:56:46.519Z,2.10
2018-03-19T08:59:14.066Z,2.20
2018-03-19T09:01:41.649Z,2.40
2018-03-19T09:04:09.298Z,2.30
2018-03-19T09:06:36.843Z,2.20
2018-03-19T09:09:04.410Z,1.90
2018-03-19T09:11:32.338Z,1.80
2018-03-19T09:13:59.882Z,1.80
2018-03-19T09:16:27.466Z,1.80
2018-03-19T09:18:55.270Z,2.10
2018-03-19T09:21:22.818Z,2.40
2018-03-19T09:23:50.363Z,2.60
2018-03-19T09:26:18.175Z,2.80
2018-03-19T09:28:45.884Z,2.90
2018-03-19T09:31:13.460Z,3.10
2018-03-19T09:33:41.051Z,3.00
2018-03-19T09:36:09.358Z,2.90
2018-03-19T09:38:36.910Z,2.90
2018-03-19T09:41:04.514Z,2.80
2018-03-19T09:43:32.057Z,2.70
2018-03-19T09:45:59.610Z,2.80
2018-03-19T09:48:27.709Z,3.20
2018-03-19T09:50:55.262Z,3.00
2018-03-19T09:53:22.806Z,3.10
2018-03-19T09:55:50.373Z,3.00
2018-03-19T09:58:17.922Z,2.80
2018-03-19T10:00:45.462Z,2.90
2018-03-19T10:03:13.390Z,3.00
2018-03-19T10:05:40.926Z,3.00
2018-03-19T10:08:08.480Z,3.00
2018-03-19T10:10:36.088Z,3.00
2018-03-19T10:13:04.694Z,2.90
2018-03-19T10:15:32.254Z,2.90
2018-03-19T10:17:59.818Z,3.00
2018-03-19T10:20:30.916Z,3.20
2018-03-19T10:22:58.472Z,3.30
2018-03-19T10:25:26.804Z,3.90
2018-03-19T10:27:56.359Z,3.80
2018-03-19T10:30:23.917Z,3.60
2018-03-19T10:32:51.473Z,3.70
2018-03-19T10:35:19.100Z,3.80
2018-03-19T10:37:46.651Z,3.80
2018-03-19T10:40:14.434Z,3.80
2018-03-19T10:42:42.211Z,3.80
2018-03-19T10:45:09.775Z,3.70
2018-03-19T10:47:37.335Z,4.00
2018-03-19T10:50:05.315Z,4.00
2018-03-19T10:52:33.638Z,4.00
2018-03-19T10:55:01.199Z,4.00
2018-03-19T10:57:28.820Z,4.20
2018-03-19T10:59:56.403Z,4.20
2018-03-19T11:02:28.587Z,4.20
2018-03-19T11:05:02.556Z,4.10
2018-03-19T11:07:36.555Z,4.50
2018-03-19T11:10:04.228Z,4.50
2018-03-19T11:12:31.807Z,4.40
2018-03-19T11:14:59.366Z,4.60
2018-03-19T11:17:27.757Z,4.30
2018-03-19T11:19:55.339Z,4.30
2018-03-19T11:22:22.906Z,4.00
2018-03-19T11:24:50.495Z,4.00
2018-03-19T11:27:18.060Z,3.80
2018-03-19T11:29:45.647Z,3.70
2018-03-19T11:32:13.642Z,3.90
2018-03-19T11:34:41.962Z,4.10
2018-03-19T11:37:11.037Z,3.90
2018-03-19T11:39:38.656Z,3.90
2018-03-19T11:42:08.747Z,4.20
2018-03-19T11:44:37.068Z,4.30
2018-03-19T11:47:04.660Z,4.30
2018-03-19T11:49:35.424Z,4.20
2018-03-19T11:52:03.764Z,3.70
2018-03-19T11:54:31.329Z,3.70
2018-03-19T11:56:59.227Z,3.60
2018-03-19T11:59:27.554Z,3.50
2018-03-19T12:01:55.141Z,3.50
2018-03-19T12:04:23.328Z,3.40
2018-03-19T12:06:50.893Z,3.30
2018-03-19T12:09:18.452Z,3.20
2018-03-19T12:11:46.878Z,3.10
2018-03-19T12:14:14.456Z,3.10
2018-03-19T12:16:42.025Z,3.00
2018-03-19T12:19:12.057Z,2.80
2018-03-19T12:21:39.607Z,2.70
2018-03-19T12:24:07.150Z,2.70
2018-03-19T12:26:34.839Z,2.70
2018-03-19T12:29:02.381Z,2.70
2018-03-19T12:31:29.930Z,2.60
2018-03-19T12:33:59.271Z,2.50
2018-03-19T12:36:26.839Z,2.40
2018-03-19T12:38:54.390Z,2.40
2018-03-19T12:41:22.464Z,2.30
2018-03-19T12:43:50.791Z,2.30
2018-03-19T12:46:18.550Z,2.30
2018-03-19T12:48:46.458Z,2.20
2018-03-19T12:51:15.526Z,2.30
2018-03-19T12:53:43.083Z,2.30
2018-03-19T12:56:12.927Z,2.30
2018-03-19T12:58:40.466Z,2.30
2018-03-19T13:01:08.012Z,2.30
2018-03-19T13:03:35.776Z,2.40
2018-03-19T13:06:03.335Z,2.30
2018-03-19T13:08:30.870Z,2.40
2018-03-19T13:10:58.463Z,2.30
2018-03-19T13:13:26.005Z,2.30
2018-03-19T13:15:53.572Z,2.30
2018-03-19T13:18:21.320Z,2.20
2018-03-19T13:20:48.866Z,2.10
2018-03-19T13:23:16.418Z,2.00
2018-03-19T13:25:44.258Z,1.80
2018-03-19T13:28:11.884Z,1.40
2018-03-19T13:30:39.543Z,1.30
2018-03-19T13:33:07.148Z,1.10
2018-03-19T13:35:34.699Z,1.00
2018-03-19T13:38:02.249Z,1.00
2018-03-19T13:40:30.058Z,1.20
2018-03-19T13:43:00.833Z,1.20
2018-03-19T13:45:28.385Z,1.20
2018-03-19T13:47:56.096Z,1.10
2018-03-19T13:50:24.419Z,1.10
2018-03-19T13:52:55.100Z,1.10
2018-03-19T13:55:26.615Z,1.30
2018-03-19T13:57:54.188Z,1.20
2018-03-19T14:00:21.734Z,1.20
2018-03-19T14:08:15.871Z,1.30
2018-03-19T14:10:43.490Z,1.20
2018-03-19T14:13:11.414Z,1.30
2018-03-19T14:15:38.976Z,1.20
2018-03-19T14:18:07.450Z,1.20
2018-03-19T14:20:36.032Z,1.20
2018-03-19T14:23:03.578Z,1.10
2018-03-19T14:25:31.126Z,1.10
2018-03-19T14:27:58.872Z,1.10
2018-03-19T14:30:27.141Z,1.20
2018-03-19T14:32:55.354Z,1.20
2018-03-19T14:35:22.894Z,1.20
2018-03-19T14:37:50.439Z,1.10
2018-03-19T14:40:18.038Z,1.00
2018-03-19T14:42:46.211Z,0.90
2018-03-19T14:45:13.754Z,1.00
2018-03-19T14:47:41.301Z,1.00
2018-03-19T14:50:09.208Z,1.00
2018-03-19T14:52:36.828Z,0.90
2018-03-19T14:55:04.388Z,1.00
2018-03-19T14:57:31.987Z,0.90
2018-03-19T14:59:59.708Z,0.90
2018-03-19T15:02:27.272Z,0.90
2018-03-19T15:04:54.828Z,0.80
2018-03-19T15:07:22.374Z,0.70
2018-03-19T15:09:50.497Z,0.80
2018-03-19T15:12:18.039Z,0.90
2018-03-19T15:14:45.587Z,1.00
2018-03-19T15:17:13.302Z,1.00
2018-03-19T15:19:41.611Z,0.90
2018-03-19T15:22:09.150Z,0.90
2018-03-19T15:24:36.875Z,1.00
2018-03-19T15:27:04.429Z,0.90
2018-03-19T15:29:31.998Z,0.80
2018-03-19T15:32:00.340Z,0.90
2018-03-19T15:34:27.894Z,0.90
2018-03-19T15:36:55.433Z,0.80
2018-03-19T15:39:23.261Z,0.80
2018-03-19T15:41:50.816Z,0.80
2018-03-19T15:44:18.363Z,0.80
2018-03-19T15:46:45.943Z,0.80
2018-03-19T15:49:13.488Z,0.80
2018-03-19T15:51:41.046Z,0.80
2018-03-19T15:54:08.817Z,0.80
2018-03-19T15:56:36.370Z,0.90
2018-03-19T15:59:03.919Z,1.00
2018-03-19T16:01:31.523Z,1.00
2018-03-19T16:03:59.066Z,1.00
2018-03-19T16:06:26.614Z,1.00
2018-03-19T16:08:54.379Z,1.10
2018-03-19T16:11:21.934Z,1.30
2018-03-19T16:13:49.473Z,1.30
2018-03-19T16:16:17.053Z,1.50
2018-03-19T16:18:44.598Z,1.40
2018-03-19T16:21:12.139Z,1.10
2018-03-19T16:23:39.943Z,0.80
2018-03-19T16:26:07.492Z,0.70
2018-03-19T16:28:35.074Z,0.80
2018-03-19T16:31:02.883Z,0.70
2018-03-19T16:33:30.449Z,0.50
2018-03-19T16:35:57.998Z,0.40
2018-03-19T16:38:25.915Z,0.20
2018-03-19T16:40:54.255Z,0.00
2018-03-19T16:43:21.802Z,0.00
2018-03-19T16:45:49.719Z,-0.10
2018-03-19T16:48:17.270Z,-0.10
2018-03-19T16:50:44.817Z,-0.20
2018-03-19T16:53:12.527Z,-0.30
2018-03-19T16:55:40.849Z,-0.50
2018-03-19T16:58:08.396Z,-0.50
2018-03-19T17:00:36.299Z,-0.60
2018-03-19T17:03:04.180Z,-0.60
2018-03-19T17:05:31.738Z,-0.60
2018-03-19T17:07:59.290Z,-0.60
2018-03-19T17:10:26.897Z,-0.70
2018-03-19T17:12:54.496Z,-0.70
2018-03-19T17:15:22.042Z,-0.70
2018-03-19T17:17:49.728Z,-0.80
2018-03-19T17:20:17.290Z,-0.80
2018-03-19T17:22:44.890Z,-0.80
2018-03-19T17:25:13.280Z,-1.00
2018-03-19T17:27:41.590Z,-1.00
2018-03-19T17:30:09.470Z,-1.00
2018-03-19T17:32:37.327Z,-1.00
2018-03-19T17:35:04.882Z,-1.10
2018-03-19T17:37:32.429Z,-1.10
2018-03-19T17:40:00.034Z,-1.10
2018-03-19T17:42:28.366Z,-1.10
2018-03-19T17:44:55.974Z,-1.10
2018-03-19T17:47:23.531Z,-1.10
2018-03-19T17:49:51.082Z,-1.20
2018-03-19T17:52:19.017Z,-1.30
2018-03-19T17:54:46.573Z,-1.30
2018-03-19T17:57:14.122Z,-1.30
2018-03-19T17:59:41.729Z,-1.30
2018-03-19T18:02:09.283Z,-1.40
2018-03-19T18:04:36.846Z,-1.30
2018-03-19T18:07:04.480Z,-1.40
2018-03-19T18:09:32.611Z,-1.40
2018-03-19T18:12:00.165Z,-1.50
2018-03-19T18:14:28.813Z,-1.40
2018-03-19T18:16:56.356Z,-1.40
2018-03-19T18:19:23.907Z,-1.40
2018-03-19T18:21:51.753Z,-1.40
2018-03-19T18:24:19.310Z,-1.40
2018-03-19T18:26:46.853Z,-1.50
2018-03-19T18:29:14.577Z,-1.50
2018-03-19T18:31:42.117Z,-1.50
2018-03-19T18:34:09.690Z,-1.60
2018-03-19T18:36:37.410Z,-1.60
2018-03-19T18:39:05.715Z,-1.60
2018-03-19T18:41:33.243Z,-1.60
2018-03-19T18:44:00.969Z,-1.60
2018-03-19T18:46:28.496Z,-1.70
2018-03-19T18:48:56.039Z,-1.60
2018-03-19T18:51:23.716Z,-1.60
2018-03-19T18:53:51.396Z,-1.60
2018-03-19T18:56:18.927Z,-1.60
2018-03-19T18:58:46.465Z,-1.70
2018-03-19T19:01:14.587Z,-1.60
2018-03-19T19:03:42.125Z,-1.60
2018-03-19T19:06:09.662Z,-1.60
2018-03-19T19:08:37.246Z,-1.50
2018-03-19T19:11:04.778Z,-1.50
2018-03-19T19:13:32.320Z,-1.40
2018-03-19T19:16:00.668Z,-1.50
2018-03-19T19:18:28.205Z,-1.60
2018-03-19T19:20:55.731Z,-1.50
2018-03-19T19:23:24.175Z,-1.50
2018-03-19T19:25:51.711Z,-1.60
2018-03-19T19:28:19.241Z,-1.60
2018-03-19T19:30:47.160Z,-1.70
2018-03-19T19:33:15.047Z,-1.60
2018-03-19T19:35:42.579Z,-1.70
2018-03-19T19:38:10.164Z,-1.70
2018-03-19T19:40:37.962Z,-1.80
2018-03-19T19:43:05.493Z,-1.80
2018-03-19T19:45:34.140Z,-1.90
2018-03-19T19:48:01.671Z,-1.90
2018-03-19T19:50:29.204Z,-1.90
2018-03-19T19:52:57.139Z,-1.90
2018-03-19T19:55:24.691Z,-1.80
2018-03-19T19:57:52.224Z,-1.70
2018-03-19T20:00:20.122Z,-1.80
2018-03-19T20:02:47.660Z,-1.80
2018-03-19T20:05:15.192Z,-1.80
2018-03-19T20:07:42.786Z,-1.90
2018-03-19T20:10:10.316Z,-1.90
2018-03-19T20:12:37.994Z,-1.90
2018-03-19T20:15:05.568Z,-1.80
2018-03-19T20:17:33.099Z,-1.70
2018-03-19T20:20:00.635Z,-1.70
2018-03-19T20:22:29.329Z,-1.70
2018-03-19T20:24:56.840Z,-1.70
2018-03-19T20:27:24.379Z,-1.60
2018-03-19T20:29:51.978Z,-1.60
2018-03-19T20:32:20.288Z,-1.60
2018-03-19T20:34:47.826Z,-1.60
2018-03-19T20:37:16.500Z,-1.50
2018-03-19T20:39:44.038Z,-1.50
2018-03-19T20:42:12.005Z,-1.40
2018-03-19T20:44:39.540Z,-1.20
2018-03-19T20:47:07.071Z,-1.10
2018-03-19T20:49:34.641Z,-1.10
2018-03-19T20:52:02.453Z,-1.10
2018-03-19T20:54:30.019Z,-1.00
2018-03-19T20:56:57.552Z,-1.10
2018-03-19T20:59:25.224Z,-1.10
2018-03-19T21:01:53.154Z,-1.00
2018-03-19T21:04:20.791Z,-1.00
2018-03-19T21:06:49.088Z,-0.80
2018-03-19T21:09:17.729Z,-0.80
2018-03-19T21:11:45.267Z,-0.90
2018-03-19T21:14:12.804Z,-0.90
2018-03-19T21:16:40.705Z,-0.90
2018-03-19T21:19:08.245Z,-0.90
2018-03-19T21:21:35.788Z,-0.90
2018-03-19T21:24:03.623Z,-1.00
2018-03-19T21:26:31.165Z,-1.00
2018-03-19T21:28:58.707Z,-1.20
2018-03-19T21:31:26.488Z,-1.20
2018-03-19T21:33:54.027Z,-1.30
2018-03-19T21:36:21.565Z,-1.30
2018-03-19T21:38:49.465Z,-1.40
2018-03-19T21:41:17.531Z,-1.50
2018-03-19T21:43:45.061Z,-1.40
2018-03-19T21:46:12.587Z,-1.40
2018-03-19T21:48:40.316Z,-1.40
2018-03-19T21:51:07.954Z,-1.50
2018-03-19T21:53:35.508Z,-1.40
2018-03-19T21:56:03.214Z,-1.50
2018-03-19T21:58:30.747Z,-1.60
2018-03-19T22:00:58.622Z,-1.70
2018-03-19T22:03:26.160Z,-1.70
2018-03-19T22:05:53.696Z,-1.60
2018-03-19T22:08:21.613Z,-1.70
2018-03-19T22:10:49.157Z,-1.70
2018-03-19T22:13:16.699Z,-1.80
2018-03-19T22:15:44.267Z,-1.80
2018-03-19T22:18:11.821Z,-1.80
2018-03-19T22:20:39.348Z,-1.80
2018-03-19T22:23:07.985Z,-2.00
2018-03-19T22:25:35.543Z,-2.00
2018-03-19T22:28:03.071Z,-2.00
2018-03-19T22:30:30.674Z,-2.00
2018-03-19T22:32:58.212Z,-2.00
2018-03-19T22:35:25.748Z,-2.00
2018-03-19T22:37:54.270Z,-2.10
2018-03-19T22:40:21.817Z,-2.10
2018-03-19T22:42:49.356Z,-2.10
2018-03-19T22:45:17.149Z,-2.10
2018-03-19T22:47:44.678Z,-2.10
2018-03-19T22:50:12.242Z,-2.00
2018-03-19T22:52:39.889Z,-2.10
2018-03-19T22:55:07.424Z,-2.20
2018-03-19T22:57:35.728Z,-2.20
2018-03-19T23:00:03.529Z,-2.20
2018-03-19T23:02:31.069Z,-2.20
2018-03-19T23:08:04.748Z,-2.30
2018-03-19T23:10:32.471Z,-2.30
2018-03-19T23:13:00.000Z,-2.40
2018-03-19T23:15:27.543Z,-2.40
2018-03-19T23:17:55.112Z,-2.40
2018-03-19T23:20:22.646Z,-2.40
2018-03-19T23:22:50.184Z,-2.50
2018-03-19T23:25:18.032Z,-2.50
2018-03-19T23:27:45.569Z,-2.50
2018-03-19T23:30:13.120Z,-2.60
2018-03-19T23:32:41.227Z,-2.40
2018-03-19T23:35:08.764Z,-2.30
2018-03-19T23:37:36.292Z,-2.20
2018-03-19T23:40:04.009Z,-2.00
2018-03-19T23:42:31.712Z,-1.90
2018-03-19T23:45:00.018Z,-1.80
2018-03-19T23:47:27.548Z,-1.80
2018-03-19T23:49:55.261Z,-1.80
2018-03-19T23:52:22.811Z,-1.70
2018-03-19T23:54:50.349Z,-1.70
2018-03-19T23:57:18.252Z,-1.60
2018-03-19T23:59:45.795Z,-1.60
